createdAt,value
2023-05-15T00:02:02.082Z,16.76
2023-05-15T00:04:29.162Z,16.80
2023-05-15T00:06:56.336Z,16.59
2023-05-15T00:09:23.467Z,16.73
2023-05-15T00:11:51.201Z,16.77
2023-05-15T00:14:18.275Z,16.75
2023-05-15T00:16:45.307Z,16.72
2023-05-15T00:19:12.412Z,16.71
2023-05-15T00:21:39.491Z,16.70
2023-05-15T00:24:06.742Z,16.84
2023-05-15T00:26:33.758Z,16.76
2023-05-15T00:29:00.756Z,16.76
2023-05-15T00:31:27.796Z,16.72
2023-05-15T00:33:54.849Z,16.67
2023-05-15T00:36:23.133Z,16.61
2023-05-15T00:38:50.428Z,16.57
2023-05-15T00:41:18.140Z,16.53
2023-05-15T00:43:45.708Z,16.43
2023-05-15T00:46:14.215Z,16.69
2023-05-15T00:48:43.586Z,16.42
2023-05-15T00:51:11.909Z,16.56
2023-05-15T00:53:39.421Z,16.55
2023-05-15T00:56:07.810Z,16.52
2023-05-15T00:58:36.740Z,16.73
2023-05-15T01:01:04.476Z,16.62
2023-05-15T01:03:32.990Z,16.62
2023-05-15T01:06:00.158Z,16.45
2023-05-15T01:08:46.650Z,16.54
2023-05-15T01:11:17.874Z,16.62
2023-05-15T01:13:45.397Z,16.71
2023-05-15T01:16:12.412Z,16.74
2023-05-15T01:18:39.578Z,16.82
2023-05-15T01:21:20.506Z,16.70
2023-05-15T01:24:09.168Z,16.64
2023-05-15T01:27:03.796Z,16.45
2023-05-15T01:33:26.075Z,16.56
2023-05-15T01:36:16.356Z,16.59
2023-05-15T01:38:53.176Z,16.57
2023-05-15T01:41:25.948Z,16.52
2023-05-15T01:44:17.912Z,16.32
2023-05-15T01:46:50.039Z,16.33
2023-05-15T01:49:23.688Z,16.36
2023-05-15T01:51:58.533Z,16.45
2023-05-15T01:54:27.220Z,16.45
2023-05-15T01:56:56.124Z,16.37
2023-05-15T01:59:25.049Z,16.25
2023-05-15T02:01:52.974Z,16.26
2023-05-15T02:04:21.059Z,16.25
2023-05-15T02:06:50.433Z,16.14
2023-05-15T02:09:18.340Z,16.35
2023-05-15T02:11:45.641Z,16.28
2023-05-15T02:14:14.918Z,16.13
2023-05-15T02:16:42.181Z,16.19
2023-05-15T02:19:09.571Z,16.34
2023-05-15T02:21:36.588Z,16.35
2023-05-15T02:24:04.062Z,16.20
2023-05-15T02:26:44.915Z,16.31
2023-05-15T02:29:17.827Z,16.28
2023-05-15T02:32:13.261Z,16.08
2023-05-15T02:34:52.059Z,16.21
2023-05-15T02:37:27.242Z,16.11
2023-05-15T02:39:58.054Z,16.14
2023-05-15T02:42:28.187Z,16.28
2023-05-15T02:44:57.508Z,16.33
2023-05-15T02:47:26.701Z,16.50
2023-05-15T02:49:53.856Z,16.36
2023-05-15T02:52:22.606Z,16.22
2023-05-15T02:54:49.628Z,16.30
2023-05-15T02:57:16.621Z,16.35
2023-05-15T02:59:43.822Z,16.37
2023-05-15T03:02:10.832Z,16.27
2023-05-15T03:04:38.001Z,16.11
2023-05-15T03:07:05.186Z,16.07
2023-05-15T03:09:32.221Z,15.88
2023-05-15T03:11:59.168Z,15.98
2023-05-15T03:14:26.190Z,15.91
2023-05-15T03:16:53.224Z,15.99
2023-05-15T03:19:20.271Z,16.16
2023-05-15T03:21:47.352Z,15.94
2023-05-15T03:24:14.442Z,16.18
2023-05-15T03:26:42.497Z,16.07
2023-05-15T03:29:09.565Z,16.22
2023-05-15T03:31:36.621Z,15.98
2023-05-15T03:34:03.717Z,16.28
2023-05-15T03:36:31.551Z,16.04
2023-05-15T03:38:58.556Z,16.04
2023-05-15T03:41:27.863Z,16.10
2023-05-15T03:43:54.853Z,16.07
2023-05-15T03:46:21.975Z,15.97
2023-05-15T03:48:49.003Z,15.86
2023-05-15T03:51:16.074Z,15.94
2023-05-15T03:53:43.090Z,16.04
2023-05-15T03:56:10.405Z,15.91
2023-05-15T03:58:37.430Z,15.88
2023-05-15T04:01:04.441Z,15.95
2023-05-15T04:03:31.526Z,15.98
2023-05-15T04:05:58.680Z,15.82
2023-05-15T04:08:28.772Z,15.95
2023-05-15T04:10:55.856Z,15.96
2023-05-15T04:13:22.962Z,15.96
2023-05-15T04:15:50.012Z,15.89
2023-05-15T04:18:17.043Z,16.00
2023-05-15T04:20:44.051Z,15.89
2023-05-15T04:23:11.106Z,16.00
2023-05-15T04:25:38.204Z,16.02
2023-05-15T04:28:06.632Z,16.04
2023-05-15T04:30:34.182Z,16.02
2023-05-15T04:33:01.274Z,15.76
2023-05-15T04:35:28.404Z,15.81
2023-05-15T04:37:55.960Z,15.78
2023-05-15T04:40:23.042Z,15.70
2023-05-15T04:42:50.047Z,15.71
2023-05-15T04:45:17.140Z,15.80
2023-05-15T04:47:44.213Z,15.71
2023-05-15T04:50:11.402Z,15.63
2023-05-15T04:52:38.515Z,15.74
2023-05-15T04:55:06.447Z,15.77
2023-05-15T04:57:33.509Z,15.73
2023-05-15T05:00:00.708Z,15.83
2023-05-15T05:02:27.981Z,16.07
2023-05-15T05:04:55.036Z,15.81
2023-05-15T05:07:22.019Z,15.89
2023-05-15T05:09:49.053Z,15.92
2023-05-15T05:12:16.031Z,15.83
2023-05-15T05:14:44.665Z,15.81
2023-05-15T05:17:11.788Z,16.01
2023-05-15T05:19:38.934Z,15.88
2023-05-15T05:22:06.408Z,16.11
2023-05-15T05:24:35.791Z,15.88
2023-05-15T05:27:03.155Z,15.76
2023-05-15T05:29:31.342Z,15.75
2023-05-15T05:31:58.883Z,15.69
2023-05-15T05:34:25.933Z,15.74
2023-05-15T05:36:52.948Z,15.83
2023-05-15T05:39:21.226Z,15.80
2023-05-15T05:41:48.404Z,15.79
2023-05-15T05:44:15.674Z,15.79
2023-05-15T05:46:43.017Z,15.81
2023-05-15T05:49:10.060Z,15.81
2023-05-15T05:51:37.248Z,15.86
2023-05-15T05:54:04.508Z,16.14
2023-05-15T05:56:31.533Z,16.30
2023-05-15T05:58:59.725Z,16.35
2023-05-15T06:01:27.763Z,16.43
2023-05-15T06:03:56.081Z,16.45
2023-05-15T06:06:23.521Z,16.51
2023-05-15T06:08:50.561Z,16.62
2023-05-15T06:11:17.694Z,16.45
2023-05-15T06:13:44.784Z,16.60
2023-05-15T06:16:11.926Z,16.42
2023-05-15T06:18:39.066Z,16.56
2023-05-15T06:21:06.340Z,16.48
2023-05-15T06:23:33.722Z,16.36
2023-05-15T06:26:01.734Z,16.47
2023-05-15T06:28:28.765Z,16.30
2023-05-15T06:30:55.814Z,16.49
2023-05-15T06:33:22.938Z,16.22
2023-05-15T06:35:50.008Z,16.11
2023-05-15T06:38:17.062Z,16.15
2023-05-15T06:40:44.079Z,16.02
2023-05-15T06:43:11.177Z,16.06
2023-05-15T06:45:38.199Z,15.78
2023-05-15T06:48:05.450Z,15.98
2023-05-15T06:50:32.458Z,15.46
2023-05-15T06:52:59.435Z,15.62
2023-05-15T06:55:26.755Z,15.63
2023-05-15T06:57:54.044Z,15.51
2023-05-15T07:00:21.303Z,15.62
2023-05-15T07:02:48.474Z,15.24
2023-05-15T07:05:15.774Z,15.24
2023-05-15T07:07:43.023Z,15.18
2023-05-15T07:10:10.418Z,15.17
2023-05-15T07:12:37.424Z,15.17
2023-05-15T07:15:05.796Z,15.05
2023-05-15T07:17:34.112Z,15.06
2023-05-15T07:20:01.499Z,15.05
2023-05-15T07:22:29.230Z,15.27
2023-05-15T07:24:56.316Z,15.14
2023-05-15T07:27:23.469Z,14.76
2023-05-15T07:29:50.538Z,14.94
2023-05-15T07:32:17.620Z,14.92
2023-05-15T07:34:44.608Z,14.95
2023-05-15T07:37:11.611Z,14.69
2023-05-15T07:39:38.662Z,14.61
2023-05-15T07:42:06.060Z,14.76
2023-05-15T07:44:33.056Z,14.91
2023-05-15T07:47:00.097Z,14.86
2023-05-15T07:49:27.083Z,14.83
2023-05-15T07:51:54.089Z,14.79
2023-05-15T07:54:21.270Z,14.82
2023-05-15T07:56:48.346Z,14.97
2023-05-15T07:59:15.667Z,14.96
2023-05-15T08:01:42.618Z,14.84
2023-05-15T08:04:09.929Z,14.88
2023-05-15T08:06:38.400Z,15.00
2023-05-15T08:09:05.522Z,14.70
2023-05-15T08:11:32.510Z,15.04
2023-05-15T08:13:59.565Z,15.20
2023-05-15T08:16:26.734Z,14.98
2023-05-15T08:18:58.261Z,14.93
2023-05-15T08:21:25.375Z,14.55
2023-05-15T08:23:54.713Z,14.38
2023-05-15T08:26:21.809Z,14.22
2023-05-15T08:28:48.824Z,14.29
2023-05-15T08:31:16.223Z,14.36
2023-05-15T08:33:43.311Z,14.21
2023-05-15T08:36:10.459Z,14.28
2023-05-15T08:38:37.442Z,14.32
2023-05-15T08:41:38.800Z,14.43
2023-05-15T08:44:11.128Z,14.50
2023-05-15T08:46:38.874Z,14.37
2023-05-15T08:49:19.042Z,14.50
2023-05-15T08:51:46.479Z,14.52
2023-05-15T08:54:14.013Z,14.22
2023-05-15T08:56:42.109Z,14.23
2023-05-15T08:59:09.242Z,14.26
2023-05-15T09:01:36.976Z,14.12
2023-05-15T09:04:04.887Z,13.97
2023-05-15T09:06:34.458Z,14.11
2023-05-15T09:09:02.233Z,14.01
2023-05-15T09:11:31.857Z,13.75
2023-05-15T09:13:59.728Z,13.80
2023-05-15T09:16:27.625Z,13.81
2023-05-15T09:18:55.021Z,14.17
2023-05-15T09:21:24.680Z,14.13
2023-05-15T09:23:55.525Z,14.22
2023-05-15T09:26:23.387Z,14.36
2023-05-15T09:28:50.528Z,14.44
2023-05-15T09:31:20.322Z,14.41
2023-05-15T09:33:47.350Z,14.19
2023-05-15T09:36:22.926Z,14.22
2023-05-15T09:38:57.643Z,14.21
2023-05-15T09:41:26.888Z,14.09
2023-05-15T09:43:56.640Z,14.03
2023-05-15T09:46:24.493Z,14.05
2023-05-15T09:48:55.804Z,13.93
2023-05-15T09:51:23.003Z,13.92
2023-05-15T09:53:53.004Z,14.00
2023-05-15T09:56:20.156Z,13.89
2023-05-15T09:58:58.242Z,13.97
2023-05-15T10:01:27.384Z,13.76
2023-05-15T10:04:06.586Z,13.87
2023-05-15T10:06:40.059Z,13.80
2023-05-15T10:09:08.903Z,13.58
2023-05-15T10:11:38.816Z,13.84
2023-05-15T10:14:08.305Z,14.08
2023-05-15T10:16:37.731Z,14.08
2023-05-15T10:19:08.055Z,14.13
2023-05-15T10:21:38.738Z,13.88
2023-05-15T10:24:07.732Z,13.81
2023-05-15T10:26:43.326Z,13.70
2023-05-15T10:29:13.159Z,13.75
2023-05-15T10:31:41.730Z,13.81
2023-05-15T10:34:10.898Z,13.61
2023-05-15T10:36:39.086Z,13.75
2023-05-15T10:39:07.888Z,13.86
2023-05-15T10:41:38.679Z,13.87
2023-05-15T10:44:06.128Z,13.91
2023-05-15T10:46:36.882Z,13.84
2023-05-15T10:49:05.287Z,14.03
2023-05-15T10:51:33.572Z,13.71
2023-05-15T10:54:03.682Z,13.84
2023-05-15T10:56:36.999Z,13.60
2023-05-15T10:59:10.477Z,13.89
2023-05-15T11:01:40.215Z,13.82
2023-05-15T11:04:22.864Z,13.55
2023-05-15T11:06:51.002Z,13.69
2023-05-15T11:09:35.426Z,14.07
2023-05-15T11:12:13.881Z,13.81
2023-05-15T11:15:02.699Z,13.73
2023-05-15T11:17:35.641Z,13.46
2023-05-15T11:20:02.848Z,13.42
2023-05-15T11:22:35.948Z,13.38
2023-05-15T11:25:12.609Z,13.07
2023-05-15T11:27:45.529Z,13.12
2023-05-15T11:30:23.062Z,13.39
2023-05-15T11:32:54.160Z,13.36
2023-05-15T11:35:34.257Z,13.34
2023-05-15T11:38:15.509Z,13.36
2023-05-15T11:40:57.028Z,13.61
2023-05-15T11:43:26.752Z,13.41
2023-05-15T11:45:57.974Z,13.47
2023-05-15T11:48:39.378Z,13.37
2023-05-15T11:51:21.265Z,13.52
2023-05-15T11:53:51.586Z,13.47
2023-05-15T11:56:28.496Z,13.36
2023-05-15T11:58:58.424Z,13.47
2023-05-15T12:01:26.220Z,13.46
2023-05-15T12:03:56.780Z,13.52
2023-05-15T12:06:24.568Z,13.34
2023-05-15T12:08:53.363Z,13.44
2023-05-15T12:11:25.233Z,13.43
2023-05-15T12:13:54.290Z,13.49
2023-05-15T12:16:28.558Z,13.54
2023-05-15T12:18:59.075Z,13.43
2023-05-15T12:21:30.871Z,13.43
2023-05-15T12:24:07.823Z,13.58
2023-05-15T12:26:36.221Z,13.47
2023-05-15T12:29:05.283Z,13.50
2023-05-15T12:31:35.701Z,13.54
2023-05-15T12:34:03.014Z,13.79
2023-05-15T12:36:31.051Z,13.56
2023-05-15T12:38:58.885Z,13.54
2023-05-15T12:41:29.496Z,13.44
2023-05-15T12:43:56.633Z,13.72
2023-05-15T12:46:26.368Z,13.84
2023-05-15T12:48:53.419Z,13.62
2023-05-15T12:51:23.030Z,13.57
2023-05-15T12:53:53.541Z,13.68
2023-05-15T12:56:21.450Z,13.92
2023-05-15T12:58:48.766Z,13.68
2023-05-15T13:01:16.635Z,13.77
2023-05-15T13:03:44.581Z,13.98
2023-05-15T13:06:11.899Z,13.89
2023-05-15T13:08:42.419Z,13.95
2023-05-15T13:11:16.679Z,14.02
2023-05-15T13:13:47.561Z,13.80
2023-05-15T13:16:31.155Z,13.88
2023-05-15T13:18:59.029Z,14.07
2023-05-15T13:21:26.239Z,14.09
2023-05-15T13:23:53.507Z,14.16
2023-05-15T13:26:20.835Z,14.14
2023-05-15T13:28:48.593Z,14.31
2023-05-15T13:31:15.671Z,14.20
2023-05-15T13:33:42.938Z,14.19
2023-05-15T13:36:10.050Z,14.09
2023-05-15T13:38:37.077Z,13.87
2023-05-15T13:41:06.958Z,14.14
2023-05-15T13:43:33.933Z,14.16
2023-05-15T13:46:00.984Z,14.32
2023-05-15T13:48:28.092Z,14.24
2023-05-15T13:50:55.069Z,14.37
2023-05-15T13:53:22.056Z,14.41
2023-05-15T13:55:49.079Z,14.42
2023-05-15T13:58:16.636Z,14.42
2023-05-15T14:00:45.239Z,14.38
2023-05-15T14:03:15.050Z,14.60
2023-05-15T14:05:42.492Z,14.32
2023-05-15T14:08:09.578Z,14.24
2023-05-15T14:10:37.434Z,14.50
2023-05-15T14:13:04.475Z,14.34
2023-05-15T14:15:31.478Z,14.34
2023-05-15T14:17:58.541Z,14.38
2023-05-15T14:20:25.870Z,14.48
2023-05-15T14:22:52.988Z,14.51
2023-05-15T14:25:20.017Z,14.43
2023-05-15T14:27:47.700Z,14.53
2023-05-15T14:30:14.975Z,14.69
2023-05-15T14:32:42.169Z,14.69
2023-05-15T14:35:09.287Z,14.73
2023-05-15T14:37:37.420Z,14.54
2023-05-15T14:40:05.130Z,14.70
2023-05-15T14:42:32.500Z,14.63
2023-05-15T14:44:59.796Z,14.77
2023-05-15T14:47:28.536Z,14.83
2023-05-15T14:49:55.748Z,14.99
2023-05-15T14:52:22.868Z,14.79
2023-05-15T14:55:00.751Z,14.71
2023-05-15T14:57:35.492Z,14.78
2023-05-15T15:00:02.845Z,14.61
2023-05-15T15:02:29.953Z,14.69
2023-05-15T15:04:57.947Z,14.73
2023-05-15T15:07:30.771Z,14.58
2023-05-15T15:09:57.837Z,14.72
2023-05-15T15:12:24.891Z,14.79
2023-05-15T15:14:51.932Z,14.70
2023-05-15T15:17:18.925Z,14.87
2023-05-15T15:19:45.993Z,15.00
2023-05-15T15:22:12.993Z,14.91
2023-05-15T15:24:39.991Z,14.90
2023-05-15T15:27:07.018Z,14.86
2023-05-15T15:29:34.032Z,15.06
2023-05-15T15:32:01.054Z,15.46
2023-05-15T15:34:28.071Z,15.67
2023-05-15T15:36:55.060Z,15.90
2023-05-15T15:39:22.042Z,15.93
2023-05-15T15:41:49.163Z,16.00
2023-05-15T15:44:16.133Z,16.04
2023-05-15T15:46:43.150Z,16.07
2023-05-15T15:49:10.161Z,16.06
2023-05-15T15:51:37.254Z,16.21
2023-05-15T15:54:04.312Z,16.27
2023-05-15T15:56:31.332Z,16.27
2023-05-15T15:58:58.397Z,16.31
2023-05-15T16:01:26.057Z,16.14
2023-05-15T16:03:53.218Z,15.88
2023-05-15T16:06:20.259Z,16.24
2023-05-15T16:08:47.236Z,16.34
2023-05-15T16:11:15.683Z,16.09
2023-05-15T16:13:42.679Z,16.24
2023-05-15T16:16:09.648Z,16.13
2023-05-15T16:18:36.748Z,15.98
2023-05-15T16:21:04.130Z,16.01
2023-05-15T16:23:36.029Z,15.91
2023-05-15T16:26:06.309Z,16.15
2023-05-15T16:28:33.306Z,15.76
2023-05-15T16:31:00.987Z,15.76
2023-05-15T16:33:29.597Z,15.85
2023-05-15T16:35:57.362Z,15.92
2023-05-15T16:38:24.738Z,15.99
2023-05-15T16:40:51.990Z,15.92
2023-05-15T16:43:19.004Z,15.77
2023-05-15T16:45:46.294Z,15.77
2023-05-15T16:48:13.355Z,15.75
2023-05-15T16:50:40.422Z,15.45
2023-05-15T16:53:07.501Z,15.62
2023-05-15T16:55:34.798Z,15.65
2023-05-15T16:58:01.846Z,15.47
2023-05-15T17:00:29.008Z,15.38
2023-05-15T17:02:56.246Z,15.48
2023-05-15T17:05:23.271Z,15.39
2023-05-15T17:07:50.231Z,15.52
2023-05-15T17:10:17.288Z,15.25
2023-05-15T17:12:44.848Z,15.37
2023-05-15T17:15:13.242Z,15.31
2023-05-15T17:17:40.362Z,15.25
2023-05-15T17:20:08.659Z,15.11
2023-05-15T17:22:35.920Z,15.05
2023-05-15T17:25:04.627Z,15.01
2023-05-15T17:27:32.350Z,15.02
2023-05-15T17:29:59.406Z,15.09
2023-05-15T17:32:26.642Z,15.04
2023-05-15T17:34:53.628Z,15.16
2023-05-15T17:37:20.721Z,14.98
2023-05-15T17:39:47.737Z,14.96
2023-05-15T17:42:14.677Z,14.81
2023-05-15T17:44:41.710Z,14.89
2023-05-15T17:47:10.227Z,14.84
2023-05-15T17:49:38.732Z,14.85
2023-05-15T17:52:08.729Z,14.82
2023-05-15T17:54:36.012Z,14.85
2023-05-15T17:57:03.211Z,14.92
2023-05-15T17:59:31.245Z,14.97
2023-05-15T18:01:58.537Z,14.92
2023-05-15T18:04:25.787Z,14.82
2023-05-15T18:06:53.075Z,14.77
2023-05-15T18:09:24.365Z,14.80
2023-05-15T18:11:52.006Z,14.85
2023-05-15T18:14:19.028Z,14.78
2023-05-15T18:16:46.068Z,14.82
2023-05-15T18:19:13.258Z,14.85
2023-05-15T18:21:40.434Z,14.97
2023-05-15T18:24:07.575Z,14.91
2023-05-15T18:26:34.680Z,14.88
2023-05-15T18:29:01.837Z,15.05
2023-05-15T18:31:28.837Z,14.99
2023-05-15T18:33:55.866Z,14.93
2023-05-15T18:36:22.897Z,14.85
2023-05-15T18:38:49.873Z,14.97
2023-05-15T18:41:16.830Z,14.77
2023-05-15T18:43:43.892Z,15.09
2023-05-15T18:46:10.916Z,15.05
2023-05-15T18:48:37.935Z,14.89
2023-05-15T18:51:05.052Z,14.74
2023-05-15T18:53:32.049Z,14.58
2023-05-15T18:55:59.024Z,14.59
2023-05-15T18:58:26.058Z,14.50
2023-05-15T19:00:53.136Z,14.61
2023-05-15T19:03:20.879Z,14.52
2023-05-15T19:05:47.984Z,14.38
2023-05-15T19:08:15.067Z,14.38
2023-05-15T19:10:47.211Z,14.30
2023-05-15T19:13:14.260Z,14.11
2023-05-15T19:15:41.289Z,14.13
2023-05-15T19:18:08.463Z,13.91
2023-05-15T19:20:35.490Z,13.93
2023-05-15T19:23:02.462Z,13.81
2023-05-15T19:25:29.421Z,13.78
2023-05-15T19:27:56.393Z,13.72
2023-05-15T19:30:23.491Z,13.78
2023-05-15T19:32:50.826Z,14.02
2023-05-15T19:35:17.984Z,13.75
2023-05-15T19:37:45.119Z,13.63
2023-05-15T19:40:12.723Z,13.54
2023-05-15T19:42:39.741Z,13.59
2023-05-15T19:45:07.663Z,13.66
2023-05-15T19:47:34.684Z,13.46
2023-05-15T19:50:02.148Z,13.52
2023-05-15T19:52:30.071Z,13.40
2023-05-15T19:54:57.015Z,13.38
2023-05-15T19:57:24.027Z,13.53
2023-05-15T19:59:51.096Z,13.42
2023-05-15T20:02:18.129Z,13.56
2023-05-15T20:04:45.159Z,13.41
2023-05-15T20:07:12.975Z,13.45
2023-05-15T20:09:40.219Z,13.42
2023-05-15T20:12:07.404Z,13.40
2023-05-15T20:14:34.455Z,13.37
2023-05-15T20:17:01.628Z,13.38
2023-05-15T20:19:31.498Z,13.50
2023-05-15T20:21:58.622Z,13.46
2023-05-15T20:24:26.306Z,13.60
2023-05-15T20:26:53.393Z,13.62
2023-05-15T20:29:20.396Z,13.56
2023-05-15T20:31:47.605Z,13.48
2023-05-15T20:34:14.960Z,13.54
2023-05-15T20:36:42.583Z,13.64
2023-05-15T20:39:10.641Z,13.65
2023-05-15T20:41:37.693Z,13.65
2023-05-15T20:44:04.809Z,13.64
2023-05-15T20:46:31.956Z,13.61
2023-05-15T20:48:59.152Z,13.63
2023-05-15T20:51:26.235Z,13.64
2023-05-15T20:53:53.317Z,13.69
2023-05-15T20:56:21.214Z,13.63
2023-05-15T20:58:48.357Z,13.45
2023-05-15T21:01:16.154Z,13.65
2023-05-15T21:03:43.773Z,13.64
2023-05-15T21:06:10.923Z,13.54
2023-05-15T21:08:37.963Z,13.40
2023-05-15T21:11:04.960Z,13.43
2023-05-15T21:13:31.951Z,13.46
2023-05-15T21:15:58.923Z,13.44
2023-05-15T21:18:26.008Z,13.50
2023-05-15T21:20:53.164Z,13.48
2023-05-15T21:23:21.301Z,13.44
2023-05-15T21:25:48.351Z,13.55
2023-05-15T21:28:15.939Z,13.44
2023-05-15T21:30:43.075Z,13.72
2023-05-15T21:33:10.173Z,13.64
2023-05-15T21:35:38.052Z,13.71
2023-05-15T21:38:05.341Z,13.59
2023-05-15T21:40:32.465Z,13.51
2023-05-15T21:42:59.501Z,13.62
2023-05-15T21:45:26.534Z,13.61
2023-05-15T21:47:53.672Z,13.53
2023-05-15T21:50:20.737Z,13.51
2023-05-15T21:52:50.422Z,13.59
2023-05-15T21:55:18.166Z,13.44
2023-05-15T21:57:45.435Z,13.57
2023-05-15T22:00:14.111Z,13.48
2023-05-15T22:02:41.341Z,13.46
2023-05-15T22:05:08.785Z,13.36
2023-05-15T22:07:35.810Z,13.20
2023-05-15T22:10:05.532Z,13.35
2023-05-15T22:12:33.212Z,13.35
2023-05-15T22:15:00.471Z,13.43
2023-05-15T22:17:29.171Z,13.31
2023-05-15T22:20:07.025Z,13.30
2023-05-15T22:22:35.668Z,13.11
2023-05-15T22:25:02.836Z,13.20
2023-05-15T22:27:30.140Z,13.21
2023-05-15T22:29:57.274Z,13.04
2023-05-15T22:32:24.513Z,13.15
2023-05-15T22:34:51.615Z,12.99
2023-05-15T22:37:19.112Z,13.18
2023-05-15T22:39:46.348Z,13.29
2023-05-15T22:42:13.409Z,13.23
2023-05-15T22:44:40.354Z,13.12
2023-05-15T22:47:07.808Z,13.23
2023-05-15T22:49:34.885Z,13.34
2023-05-15T22:52:02.111Z,13.15
2023-05-15T22:54:29.147Z,13.07
2023-05-15T22:56:56.473Z,13.18
2023-05-15T22:59:23.463Z,13.07
2023-05-15T23:01:50.655Z,12.88
2023-05-15T23:04:18.208Z,12.87
2023-05-15T23:06:45.775Z,12.83
2023-05-15T23:09:12.802Z,12.88
2023-05-15T23:11:39.783Z,12.87
2023-05-15T23:14:08.365Z,12.98
2023-05-15T23:16:36.303Z,12.89
2023-05-15T23:19:04.107Z,12.75
2023-05-15T23:21:31.313Z,12.68
2023-05-15T23:23:58.319Z,12.70
2023-05-15T23:26:26.071Z,12.56
2023-05-15T23:28:53.120Z,12.70
2023-05-15T23:31:20.755Z,12.61
2023-05-15T23:33:47.803Z,12.62
2023-05-15T23:36:14.817Z,12.61
2023-05-15T23:38:41.957Z,12.51
2023-05-15T23:41:09.457Z,12.57
2023-05-15T23:43:36.509Z,12.65
2023-05-15T23:46:03.679Z,12.40
2023-05-15T23:48:31.755Z,12.33
2023-05-15T23:50:58.799Z,12.49
2023-05-15T23:53:25.894Z,12.53
2023-05-15T23:55:53.575Z,12.53
2023-05-15T23:58:21.521Z,12.44
